createdAt,value
2024-02-22T00:01:53.888Z,-2.05
2024-02-22T00:04:26.488Z,-2.07
2024-02-22T00:07:00.393Z,-2.07
2024-02-22T00:09:33.315Z,-2.04
2024-02-22T00:12:06.166Z,-2.07
2024-02-22T00:14:41.373Z,-2.06
2024-02-22T00:17:13.633Z,-2.05
2024-02-22T00:19:46.165Z,-1.99
2024-02-22T00:22:18.417Z,-2.03
2024-02-22T00:24:50.871Z,-2.06
2024-02-22T00:27:23.431Z,-2.07
2024-02-22T00:29:55.625Z,-2.05
2024-02-22T00:32:28.305Z,-2.03
2024-02-22T00:35:00.612Z,-2.02
2024-02-22T00:37:36.793Z,-2.04
2024-02-22T00:40:11.965Z,-2.01
2024-02-22T00:42:47.232Z,-1.99
2024-02-22T00:45:21.299Z,-1.99
2024-02-22T00:47:53.683Z,-1.99
2024-02-22T00:50:27.735Z,-1.90
2024-02-22T00:53:00.509Z,-1.95
2024-02-22T00:55:33.823Z,-2.01
2024-02-22T00:58:09.557Z,-1.93
2024-02-22T01:00:40.997Z,-1.92
2024-02-22T01:03:13.772Z,-1.94
2024-02-22T01:05:46.194Z,-1.93
2024-02-22T01:08:18.821Z,-1.95
2024-02-22T01:10:51.380Z,-1.94
2024-02-22T01:13:23.973Z,-1.92
2024-02-22T01:15:56.229Z,-1.88
2024-02-22T01:18:29.425Z,-1.88
2024-02-22T01:21:01.998Z,-1.86
2024-02-22T01:23:34.465Z,-1.85
2024-02-22T01:26:06.957Z,-1.83
2024-02-22T01:28:39.273Z,-1.84
2024-02-22T01:31:11.968Z,-1.90
2024-02-22T01:33:48.150Z,-1.87
2024-02-22T01:36:20.929Z,-1.86
2024-02-22T01:38:53.428Z,-1.88
2024-02-22T01:41:28.887Z,-1.91
2024-02-22T01:44:00.182Z,-1.91
2024-02-22T01:46:33.052Z,-1.91
2024-02-22T01:49:10.664Z,-1.91
2024-02-22T01:51:43.478Z,-1.89
2024-02-22T01:54:16.184Z,-1.90
2024-02-22T01:56:48.460Z,-1.88
2024-02-22T01:59:21.788Z,-1.89
2024-02-22T02:01:55.995Z,-1.90
2024-02-22T02:04:29.797Z,-1.90
2024-02-22T02:07:02.321Z,-1.90
2024-02-22T02:09:34.771Z,-1.88
2024-02-22T02:12:08.914Z,-1.89
2024-02-22T02:14:41.340Z,-1.88
2024-02-22T02:17:14.319Z,-1.87
2024-02-22T02:19:48.318Z,-1.86
2024-02-22T02:22:29.083Z,-1.87
2024-02-22T02:25:06.294Z,-1.89
2024-02-22T02:27:39.771Z,-1.89
2024-02-22T02:30:13.028Z,-1.87
2024-02-22T02:32:45.364Z,-1.81
2024-02-22T02:35:18.396Z,-1.84
2024-02-22T02:37:50.737Z,-1.89
2024-02-22T02:40:23.281Z,-1.89
2024-02-22T02:42:55.603Z,-1.92
2024-02-22T02:45:28.072Z,-1.88
2024-02-22T02:48:01.038Z,-1.91
2024-02-22T02:50:33.536Z,-1.88
2024-02-22T02:53:05.910Z,-1.86
2024-02-22T02:55:38.646Z,-1.85
2024-02-22T02:58:10.790Z,-1.87
2024-02-22T03:00:43.143Z,-1.82
2024-02-22T03:03:15.817Z,-1.88
2024-02-22T03:05:49.203Z,-1.90
2024-02-22T03:08:22.976Z,-1.89
2024-02-22T03:10:55.055Z,-1.87
2024-02-22T03:13:27.753Z,-1.71
2024-02-22T03:16:00.371Z,-1.85
2024-02-22T03:18:35.337Z,-1.86
2024-02-22T03:21:10.460Z,-1.87
2024-02-22T03:23:43.005Z,-1.88
2024-02-22T03:26:16.504Z,-1.87
2024-02-22T03:28:49.209Z,-1.89
2024-02-22T03:31:24.263Z,-1.81
2024-02-22T03:33:57.389Z,-1.82
2024-02-22T03:36:30.406Z,-1.81
2024-02-22T03:39:05.514Z,-1.81
2024-02-22T03:41:39.651Z,-1.83
2024-02-22T03:44:13.128Z,-1.82
2024-02-22T03:46:50.399Z,-1.80
2024-02-22T03:49:22.751Z,-1.84
2024-02-22T03:51:56.252Z,-1.81
2024-02-22T03:54:29.026Z,-1.79
2024-02-22T03:57:02.642Z,-1.79
2024-02-22T03:59:35.010Z,-1.77
2024-02-22T04:02:08.854Z,-1.60
2024-02-22T04:04:43.634Z,-1.72
2024-02-22T04:07:19.941Z,-1.75
2024-02-22T04:09:55.033Z,-1.76
2024-02-22T04:12:28.083Z,-1.77
2024-02-22T04:15:01.408Z,-1.78
2024-02-22T04:17:35.505Z,-1.64
2024-02-22T04:20:10.560Z,-1.75
2024-02-22T04:22:52.030Z,-1.78
2024-02-22T04:25:26.268Z,-1.77
2024-02-22T04:27:59.837Z,-1.77
2024-02-22T04:30:33.172Z,-1.75
2024-02-22T04:33:07.733Z,-1.75
2024-02-22T04:35:42.658Z,-1.74
2024-02-22T04:38:16.219Z,-1.73
2024-02-22T04:40:51.584Z,-1.69
2024-02-22T04:43:24.869Z,-1.70
2024-02-22T04:45:58.093Z,-1.70
2024-02-22T04:48:32.969Z,-1.67
2024-02-22T04:51:05.924Z,-1.64
2024-02-22T04:53:39.546Z,-1.60
2024-02-22T04:56:14.609Z,-1.60
2024-02-22T04:58:47.577Z,-1.52
2024-02-22T05:01:20.709Z,-1.56
2024-02-22T05:03:53.884Z,-1.56
2024-02-22T05:06:27.416Z,-1.56
2024-02-22T05:09:00.557Z,-1.56
2024-02-22T05:11:33.404Z,-1.54
2024-02-22T05:14:07.196Z,-1.55
2024-02-22T05:16:40.717Z,-1.55
2024-02-22T05:19:14.896Z,-1.54
2024-02-22T05:21:50.555Z,-1.51
2024-02-22T05:24:24.656Z,-1.49
2024-02-22T05:26:57.124Z,-1.38
2024-02-22T05:29:30.097Z,-1.21
2024-02-22T05:32:05.474Z,-1.38
2024-02-22T05:34:39.659Z,-1.42
2024-02-22T05:37:13.987Z,-1.41
2024-02-22T05:39:47.666Z,-1.41
2024-02-22T05:42:20.209Z,-1.44
2024-02-22T05:44:54.079Z,-1.45
2024-02-22T05:47:28.061Z,-1.43
2024-02-22T05:50:01.908Z,-1.41
2024-02-22T05:52:36.602Z,-1.35
2024-02-22T05:55:08.578Z,-1.33
2024-02-22T05:57:41.300Z,-1.15
2024-02-22T06:00:17.052Z,-1.20
2024-02-22T06:02:50.028Z,-1.17
2024-02-22T06:05:24.556Z,-1.15
2024-02-22T06:07:59.458Z,-1.11
2024-02-22T06:10:35.549Z,-1.11
2024-02-22T06:13:09.777Z,-1.12
2024-02-22T06:15:44.106Z,-1.07
2024-02-22T06:18:20.459Z,-1.06
2024-02-22T06:20:54.520Z,-1.03
2024-02-22T06:23:29.197Z,-1.07
2024-02-22T06:26:03.206Z,-1.03
2024-02-22T06:28:37.188Z,-1.02
2024-02-22T06:31:10.268Z,-1.02
2024-02-22T06:33:43.496Z,-0.88
2024-02-22T06:36:18.096Z,-0.92
2024-02-22T06:38:52.883Z,-0.90
2024-02-22T06:41:27.331Z,-0.88
2024-02-22T06:44:02.499Z,-0.79
2024-02-22T06:46:35.904Z,-0.79
2024-02-22T06:49:10.564Z,-0.78
2024-02-22T06:51:45.473Z,-0.75
2024-02-22T06:54:18.886Z,-0.72
2024-02-22T06:56:51.714Z,-0.68
2024-02-22T06:59:25.011Z,-0.67
2024-02-22T07:01:58.316Z,-0.61
2024-02-22T07:04:31.544Z,-0.68
2024-02-22T07:07:05.167Z,-0.66
2024-02-22T07:09:38.283Z,-0.65
2024-02-22T07:12:11.454Z,-0.51
2024-02-22T07:14:44.995Z,-0.59
2024-02-22T07:17:22.469Z,-0.58
2024-02-22T07:19:59.053Z,-0.61
2024-02-22T07:22:35.074Z,-0.61
2024-02-22T07:25:12.025Z,-0.62
2024-02-22T07:27:45.380Z,-0.60
2024-02-22T07:30:18.965Z,-0.59
2024-02-22T07:32:53.968Z,-0.62
2024-02-22T07:35:30.181Z,-0.57
2024-02-22T07:38:02.850Z,-0.52
2024-02-22T07:40:35.488Z,-0.40
2024-02-22T07:43:08.756Z,-0.46
2024-02-22T07:45:45.366Z,-0.46
2024-02-22T07:48:19.011Z,-0.43
2024-02-22T07:50:51.970Z,-0.40
2024-02-22T07:53:25.452Z,-0.38
2024-02-22T07:55:58.900Z,-0.36
2024-02-22T07:58:33.565Z,-0.36
2024-02-22T08:01:07.402Z,-0.37
2024-02-22T08:03:40.232Z,-0.36
2024-02-22T08:06:13.887Z,-0.31
2024-02-22T08:08:47.816Z,-0.27
2024-02-22T08:11:22.516Z,-0.17
2024-02-22T08:13:56.554Z,-0.07
2024-02-22T08:16:30.705Z,-0.01
2024-02-22T08:19:05.700Z,0.08
2024-02-22T08:21:39.031Z,0.17
2024-02-22T08:24:14.731Z,0.28
2024-02-22T08:26:48.337Z,0.37
2024-02-22T08:29:22.576Z,0.42
2024-02-22T08:31:58.729Z,0.45
2024-02-22T08:34:32.170Z,0.47
2024-02-22T08:37:05.642Z,0.51
2024-02-22T08:39:38.135Z,0.68
2024-02-22T08:42:11.787Z,0.62
2024-02-22T08:44:45.828Z,0.67
2024-02-22T08:47:20.265Z,0.71
2024-02-22T08:49:54.789Z,0.75
2024-02-22T08:52:28.537Z,0.82
2024-02-22T08:55:03.167Z,0.78
2024-02-22T09:00:12.016Z,0.78
2024-02-22T09:02:46.211Z,0.75
2024-02-22T09:05:18.977Z,0.74
2024-02-22T09:07:53.703Z,0.78
2024-02-22T09:10:27.637Z,0.84
2024-02-22T09:13:00.938Z,0.90
2024-02-22T09:15:33.880Z,0.95
2024-02-22T09:18:07.723Z,1.01
2024-02-22T09:20:40.466Z,1.08
2024-02-22T09:23:15.016Z,1.06
2024-02-22T09:25:48.136Z,1.05
2024-02-22T09:28:21.717Z,1.04
2024-02-22T09:30:55.004Z,1.02
2024-02-22T09:33:29.604Z,1.04
2024-02-22T09:36:02.405Z,1.05
2024-02-22T09:38:36.103Z,1.04
2024-02-22T09:41:10.260Z,1.04
2024-02-22T09:43:46.010Z,1.20
2024-02-22T09:46:20.715Z,1.12
2024-02-22T09:48:55.564Z,1.12
2024-02-22T09:51:29.764Z,1.07
2024-02-22T09:54:03.964Z,1.04
2024-02-22T09:56:40.148Z,1.00
2024-02-22T09:59:18.517Z,0.98
2024-02-22T10:01:52.136Z,0.93
2024-02-22T10:04:26.908Z,0.87
2024-02-22T10:07:05.442Z,0.86
2024-02-22T10:09:46.590Z,0.84
2024-02-22T10:12:28.960Z,0.83
2024-02-22T10:15:06.937Z,0.84
2024-02-22T10:17:41.268Z,0.89
2024-02-22T10:20:13.933Z,0.91
2024-02-22T10:22:48.741Z,0.99
2024-02-22T10:25:22.309Z,0.95
2024-02-22T10:27:55.578Z,0.95
2024-02-22T10:30:30.867Z,0.96
2024-02-22T10:33:04.886Z,0.94
2024-02-22T10:35:39.308Z,0.95
2024-02-22T10:38:12.979Z,0.95
2024-02-22T10:40:50.489Z,0.96
2024-02-22T10:43:25.888Z,0.95
2024-02-22T10:46:04.999Z,0.92
2024-02-22T10:48:40.482Z,0.90
2024-02-22T10:51:15.264Z,0.89
2024-02-22T10:53:54.970Z,0.86
2024-02-22T10:56:32.260Z,0.82
2024-02-22T10:59:10.516Z,0.86
2024-02-22T11:01:46.159Z,0.86
2024-02-22T11:04:20.247Z,0.88
2024-02-22T11:06:53.402Z,0.90
2024-02-22T11:09:26.992Z,0.94
2024-02-22T11:12:03.086Z,0.93
2024-02-22T11:14:40.734Z,0.92
2024-02-22T11:17:21.513Z,0.97
2024-02-22T11:19:55.689Z,0.85
2024-02-22T11:22:32.019Z,0.89
2024-02-22T11:25:09.013Z,0.85
2024-02-22T11:27:43.747Z,0.87
2024-02-22T11:30:18.185Z,0.89
2024-02-22T11:32:54.013Z,0.85
2024-02-22T11:35:29.374Z,0.85
2024-02-22T11:38:07.659Z,0.81
2024-02-22T11:40:41.062Z,0.80
2024-02-22T11:43:15.088Z,0.81
2024-02-22T11:45:49.616Z,0.81
2024-02-22T11:48:24.200Z,0.79
2024-02-22T11:50:57.042Z,0.78
2024-02-22T11:53:30.781Z,0.94
2024-02-22T11:56:03.965Z,0.84
2024-02-22T11:58:39.137Z,0.82
2024-02-22T12:01:12.126Z,0.82
2024-02-22T12:03:48.103Z,0.83
2024-02-22T12:06:22.981Z,0.99
2024-02-22T12:08:57.388Z,1.03
2024-02-22T12:11:29.620Z,0.95
2024-02-22T12:14:06.470Z,0.99
2024-02-22T12:16:41.375Z,0.89
2024-02-22T12:19:22.035Z,0.88
2024-02-22T12:21:55.845Z,0.89
2024-02-22T12:24:30.310Z,0.88
2024-02-22T12:27:05.194Z,0.89
2024-02-22T12:29:39.151Z,0.89
2024-02-22T12:32:13.899Z,0.85
2024-02-22T12:34:47.486Z,0.84
2024-02-22T12:37:21.056Z,0.87
2024-02-22T12:39:54.300Z,0.85
2024-02-22T12:42:27.815Z,0.84
2024-02-22T12:45:00.936Z,0.84
2024-02-22T12:47:35.258Z,0.84
2024-02-22T12:50:09.398Z,0.85
2024-02-22T12:52:42.364Z,0.84
2024-02-22T12:55:15.595Z,1.01
2024-02-22T12:57:51.113Z,0.89
2024-02-22T13:00:25.249Z,0.89
2024-02-22T13:02:59.689Z,0.89
2024-02-22T13:05:32.508Z,0.89
2024-02-22T13:08:12.904Z,0.87
2024-02-22T13:10:41.075Z,0.87
2024-02-22T13:13:15.701Z,0.88
2024-02-22T13:15:49.906Z,0.87
2024-02-22T13:18:22.703Z,0.83
2024-02-22T13:20:56.621Z,0.84
2024-02-22T13:23:30.465Z,0.77
2024-02-22T13:26:10.350Z,0.72
2024-02-22T13:28:42.510Z,0.66
2024-02-22T13:31:15.607Z,0.58
2024-02-22T13:33:50.063Z,0.55
2024-02-22T13:36:23.076Z,0.55
2024-02-22T13:38:56.089Z,0.52
2024-02-22T13:41:31.040Z,0.51
2024-02-22T13:44:11.613Z,0.52
2024-02-22T13:46:40.033Z,0.52
2024-02-22T13:49:14.716Z,0.52
2024-02-22T13:51:48.589Z,0.69
2024-02-22T13:54:21.593Z,0.55
2024-02-22T13:56:55.945Z,0.55
2024-02-22T13:59:30.308Z,0.50
2024-02-22T14:02:05.461Z,0.48
2024-02-22T14:04:38.900Z,0.47
2024-02-22T14:07:11.867Z,0.44
2024-02-22T14:09:45.037Z,0.39
2024-02-22T14:12:18.276Z,0.36
2024-02-22T14:14:51.282Z,0.36
2024-02-22T14:17:26.320Z,0.31
2024-02-22T14:19:59.833Z,0.27
2024-02-22T14:22:33.743Z,0.24
2024-02-22T14:25:08.494Z,0.22
2024-02-22T14:27:42.250Z,0.19
2024-02-22T14:30:17.819Z,0.14
2024-02-22T14:32:52.049Z,0.16
2024-02-22T14:35:25.107Z,0.13
2024-02-22T14:40:52.017Z,0.09
2024-02-22T14:43:23.760Z,0.06
2024-02-22T14:45:56.952Z,0.03
2024-02-22T14:48:29.857Z,0.04
2024-02-22T14:51:02.768Z,0.00
2024-02-22T14:53:38.132Z,0.01
2024-02-22T14:56:12.697Z,-0.02
2024-02-22T14:58:50.552Z,0.00
2024-02-22T15:01:26.446Z,0.00
2024-02-22T15:03:59.619Z,-0.04
2024-02-22T15:06:32.822Z,-0.08
2024-02-22T15:09:06.955Z,-0.09
2024-02-22T15:11:40.557Z,-0.12
2024-02-22T15:14:14.456Z,-0.04
2024-02-22T15:16:48.384Z,-0.09
2024-02-22T15:19:21.950Z,-0.03
2024-02-22T15:21:56.140Z,-0.05
2024-02-22T15:24:30.352Z,-0.13
2024-02-22T15:27:04.960Z,-0.13
2024-02-22T15:29:39.507Z,-0.14
2024-02-22T15:32:13.115Z,-0.13
2024-02-22T15:34:48.046Z,-0.17
2024-02-22T15:37:22.598Z,-0.16
2024-02-22T15:39:57.574Z,-0.16
2024-02-22T15:42:31.356Z,-0.16
2024-02-22T15:45:05.273Z,-0.08
2024-02-22T15:47:38.302Z,-0.12
2024-02-22T15:50:12.374Z,-0.13
2024-02-22T15:52:45.440Z,-0.13
2024-02-22T15:55:18.667Z,-0.15
2024-02-22T15:57:51.676Z,-0.13
2024-02-22T16:00:25.790Z,-0.17
2024-02-22T16:02:59.123Z,-0.18
2024-02-22T16:05:34.278Z,-0.18
2024-02-22T16:08:08.930Z,-0.23
2024-02-22T16:10:42.831Z,-0.25
2024-02-22T16:13:16.804Z,-0.23
2024-02-22T16:15:50.900Z,-0.10
2024-02-22T16:18:25.860Z,-0.26
2024-02-22T16:20:58.795Z,-0.27
2024-02-22T16:23:33.156Z,-0.34
2024-02-22T16:26:06.350Z,-0.36
2024-02-22T16:28:39.877Z,-0.36
2024-02-22T16:31:13.654Z,-0.24
2024-02-22T16:33:47.152Z,-0.36
2024-02-22T16:36:20.603Z,-0.38
2024-02-22T16:38:58.927Z,-0.39
2024-02-22T16:41:32.169Z,-0.40
2024-02-22T16:44:08.952Z,-0.37
2024-02-22T16:46:47.790Z,-0.39
2024-02-22T16:49:23.527Z,-0.36
2024-02-22T16:51:57.897Z,-0.32
2024-02-22T16:54:31.816Z,-0.40
2024-02-22T16:57:08.493Z,-0.46
2024-02-22T16:59:43.748Z,-0.46
2024-02-22T17:02:17.985Z,-0.50
2024-02-22T17:04:51.076Z,-0.54
2024-02-22T17:07:24.019Z,-0.55
2024-02-22T17:09:57.617Z,-0.54
2024-02-22T17:12:31.403Z,-0.42
2024-02-22T17:15:07.149Z,-0.56
2024-02-22T17:17:43.865Z,-0.60
2024-02-22T17:20:19.178Z,-0.64
2024-02-22T17:22:54.284Z,-0.59
2024-02-22T17:25:28.153Z,-0.66
2024-02-22T17:28:01.732Z,-0.69
2024-02-22T17:30:35.437Z,-0.69
2024-02-22T17:33:08.776Z,-0.69
2024-02-22T17:35:42.902Z,-0.67
2024-02-22T17:38:16.395Z,-0.67
2024-02-22T17:40:51.190Z,-0.65
2024-02-22T17:43:23.794Z,-0.52
2024-02-22T17:45:57.225Z,-0.57
2024-02-22T17:48:31.124Z,-0.63
2024-02-22T17:51:03.930Z,-0.62
2024-02-22T17:53:38.195Z,-0.61
2024-02-22T17:56:11.182Z,-0.63
2024-02-22T17:58:51.645Z,-0.60
2024-02-22T18:01:20.378Z,-0.61
2024-02-22T18:03:53.884Z,-0.63
2024-02-22T18:06:26.786Z,-0.63
2024-02-22T18:08:59.151Z,-0.66
2024-02-22T18:11:32.686Z,-0.64
2024-02-22T18:14:05.223Z,-0.64
2024-02-22T18:16:38.224Z,-0.66
2024-02-22T18:19:10.842Z,-0.67
2024-02-22T18:21:43.372Z,-0.66
2024-02-22T18:24:16.643Z,-0.67
2024-02-22T18:26:49.982Z,-0.66
2024-02-22T18:29:24.689Z,-0.62
2024-02-22T18:31:57.761Z,-0.51
2024-02-22T18:34:30.120Z,-0.58
2024-02-22T18:37:03.705Z,-0.57
2024-02-22T18:39:36.475Z,-0.52
2024-02-22T18:42:09.182Z,-0.58
2024-02-22T18:44:44.081Z,-0.58
2024-02-22T18:47:16.535Z,-0.55
2024-02-22T18:49:49.265Z,-0.61
2024-02-22T18:52:24.686Z,-0.66
2024-02-22T18:54:56.469Z,-0.68
2024-02-22T18:57:29.151Z,-0.66
2024-02-22T19:00:01.898Z,-0.66
2024-02-22T19:02:35.392Z,-0.64
2024-02-22T19:05:09.407Z,-0.68
2024-02-22T19:07:42.753Z,-0.69
2024-02-22T19:10:17.041Z,-0.59
2024-02-22T19:12:50.089Z,-0.61
2024-02-22T19:15:22.610Z,-0.58
2024-02-22T19:17:56.017Z,-0.53
2024-02-22T19:20:28.854Z,-0.52
2024-02-22T19:23:01.514Z,-0.57
2024-02-22T19:25:33.916Z,-0.60
2024-02-22T19:28:07.390Z,-0.60
2024-02-22T19:30:41.968Z,-0.60
2024-02-22T19:33:17.472Z,-0.61
2024-02-22T19:35:49.552Z,-0.57
2024-02-22T19:38:22.418Z,-0.55
2024-02-22T19:40:56.932Z,-0.54
2024-02-22T19:43:30.135Z,-0.53
2024-02-22T19:46:04.236Z,-0.44
2024-02-22T19:48:37.966Z,-0.45
2024-02-22T19:51:10.676Z,-0.51
2024-02-22T19:53:42.594Z,-0.32
2024-02-22T19:56:15.135Z,-0.46
2024-02-22T19:58:50.995Z,-0.47
2024-02-22T20:01:23.398Z,-0.50
2024-02-22T20:03:58.947Z,-0.47
2024-02-22T20:06:32.262Z,-0.46
2024-02-22T20:09:04.964Z,-0.47
2024-02-22T20:11:39.054Z,-0.46
2024-02-22T20:14:11.821Z,-0.40
2024-02-22T20:16:44.392Z,-0.44
2024-02-22T20:19:17.770Z,-0.46
2024-02-22T20:21:50.535Z,-0.40
2024-02-22T20:24:23.358Z,-0.43
2024-02-22T20:26:56.001Z,-0.44
2024-02-22T20:29:28.853Z,-0.46
2024-02-22T20:32:03.225Z,-0.48
2024-02-22T20:34:35.178Z,-0.47
2024-02-22T20:37:07.912Z,-0.30
2024-02-22T20:39:40.971Z,-0.45
2024-02-22T20:42:17.879Z,-0.45
2024-02-22T20:44:52.186Z,-0.46
2024-02-22T20:47:26.344Z,-0.47
2024-02-22T20:49:58.304Z,-0.43
2024-02-22T20:52:30.799Z,-0.35
2024-02-22T20:55:04.374Z,-0.48
2024-02-22T20:57:36.654Z,-0.55
2024-02-22T21:00:12.683Z,-0.51
2024-02-22T21:02:44.917Z,-0.58
2024-02-22T21:05:17.602Z,-0.60
2024-02-22T21:07:50.234Z,-0.61
2024-02-22T21:10:23.637Z,-0.63
2024-02-22T21:12:55.919Z,-0.62
2024-02-22T21:15:30.373Z,-0.63
2024-02-22T21:18:04.251Z,-0.66
2024-02-22T21:20:36.629Z,-0.66
2024-02-22T21:23:08.692Z,-0.56
2024-02-22T21:25:41.641Z,-0.68
2024-02-22T21:28:19.017Z,-0.68
2024-02-22T21:30:52.761Z,-0.64
2024-02-22T21:33:26.963Z,-0.66
2024-02-22T21:36:00.311Z,-0.67
2024-02-22T21:38:34.463Z,-0.67
2024-02-22T21:41:09.649Z,-0.61
2024-02-22T21:43:43.088Z,-0.63
2024-02-22T21:46:16.789Z,-0.57
2024-02-22T21:48:49.342Z,-0.58
2024-02-22T21:51:21.860Z,-0.57
2024-02-22T21:53:54.723Z,-0.57
2024-02-22T21:56:29.290Z,-0.62
2024-02-22T21:59:01.640Z,-0.59
2024-02-22T22:04:24.196Z,-0.60
2024-02-22T22:06:56.609Z,-0.64
2024-02-22T22:09:29.771Z,-0.66
2024-02-22T22:12:02.450Z,-0.65
2024-02-22T22:14:35.289Z,-0.65
2024-02-22T22:17:08.436Z,-0.63
2024-02-22T22:19:40.622Z,-0.62
2024-02-22T22:22:13.197Z,-0.62
2024-02-22T22:24:45.921Z,-0.49
2024-02-22T22:27:19.008Z,-0.59
2024-02-22T22:29:51.260Z,-0.57
2024-02-22T22:32:24.611Z,-0.54
2024-02-22T22:34:57.269Z,-0.56
2024-02-22T22:37:30.655Z,-0.57
2024-02-22T22:40:03.670Z,-0.56
2024-02-22T22:42:35.975Z,-0.55
2024-02-22T22:45:09.034Z,-0.50
2024-02-22T22:47:41.578Z,-0.48
2024-02-22T22:50:14.650Z,-0.46
2024-02-22T22:52:47.298Z,-0.50
2024-02-22T22:55:19.618Z,-0.49
2024-02-22T22:57:51.959Z,-0.45
2024-02-22T23:00:26.096Z,-0.49
2024-02-22T23:02:59.246Z,-0.50
2024-02-22T23:05:32.558Z,-0.48
2024-02-22T23:08:05.421Z,-0.49
2024-02-22T23:10:37.673Z,-0.50
2024-02-22T23:13:09.999Z,-0.44
2024-02-22T23:15:43.709Z,-0.46
2024-02-22T23:18:16.236Z,-0.46
2024-02-22T23:20:48.645Z,-0.40
2024-02-22T23:23:20.949Z,-0.42
2024-02-22T23:25:54.061Z,-0.44
2024-02-22T23:28:26.772Z,-0.41
2024-02-22T23:30:59.165Z,-0.40
2024-02-22T23:33:31.994Z,-0.37
2024-02-22T23:36:04.851Z,-0.40
2024-02-22T23:38:38.810Z,-0.38
2024-02-22T23:41:22.092Z,-0.39
2024-02-22T23:43:44.899Z,-0.37
2024-02-22T23:46:17.231Z,-0.32
2024-02-22T23:48:49.788Z,-0.25
2024-02-22T23:51:22.865Z,-0.34
2024-02-22T23:53:54.971Z,-0.20
2024-02-22T23:56:28.163Z,-0.32
2024-02-22T23:59:01.206Z,-0.34
